Terminal Aerodrome Forecast
Issued by NWS

Home | Current Version | Previous Version | Text Only | Print | Product List | Glossary On
Versions: 1 2 3 4 5 6 7 8 9 10 11 12
000
FTUS45 KRIW 190500
TAFWRL
TAF
KWRL 190523Z 1906/2006 01008KT P6SM VCSH SCT070 BKN100
     FM191200 VRB06KT P6SM SCT080 BKN120
     FM191600 34006KT P6SM SCT110
     FM200500 VRB05KT P6SM FEW120=

USA.gov is the U.S. government's official web portal to all federal, state and local government web resources and services.